sensor_id;sensor_type;location;lat;lon;timestamp;P1;durP1;ratioP1;P2;durP2;ratioP2
2049;SDS011;8478;49.208;8.806;2022-07-21T00:00:38;12.47;;;11.57;;
2049;SDS011;8478;49.208;8.806;2022-07-21T00:03:04;12.60;;;11.60;;
2049;SDS011;8478;49.208;8.806;2022-07-21T00:05:29;12.50;;;11.50;;
2049;SDS011;8478;49.208;8.806;2022-07-21T00:07:55;12.60;;;11.40;;
2049;SDS011;8478;49.208;8.806;2022-07-21T00:10:22;11.30;;;10.50;;
2049;SDS011;8478;49.208;8.806;2022-07-21T00:12:49;11.33;;;10.53;;
2049;SDS011;8478;49.208;8.806;2022-07-21T00:15:16;11.03;;;10.20;;
2049;SDS011;8478;49.208;8.806;2022-07-21T00:17:43;11.33;;;10.43;;
2049;SDS011;8478;49.208;8.806;2022-07-21T00:20:10;11.30;;;10.50;;
2049;SDS011;8478;49.208;8.806;2022-07-21T00:22:38;12.53;;;11.53;;
2049;SDS011;8478;49.208;8.806;2022-07-21T00:25:04;12.93;;;12.00;;
2049;SDS011;8478;49.208;8.806;2022-07-21T00:27:30;12.10;;;11.20;;
2049;SDS011;8478;49.208;8.806;2022-07-21T00:29:56;11.53;;;10.63;;
2049;SDS011;8478;49.208;8.806;2022-07-21T00:32:22;11.10;;;10.30;;
2049;SDS011;8478;49.208;8.806;2022-07-21T00:34:47;10.80;;;10.00;;
2049;SDS011;8478;49.208;8.806;2022-07-21T00:37:13;10.67;;;9.90;;
2049;SDS011;8478;49.208;8.806;2022-07-21T00:39:39;11.97;;;11.07;;
2049;SDS011;8478;49.208;8.806;2022-07-21T00:42:05;9.90;;;9.20;;
2049;SDS011;8478;49.208;8.806;2022-07-21T00:44:30;10.77;;;9.97;;
2049;SDS011;8478;49.208;8.806;2022-07-21T00:46:57;11.37;;;10.43;;
2049;SDS011;8478;49.208;8.806;2022-07-21T00:49:23;11.73;;;10.80;;
2049;SDS011;8478;49.208;8.806;2022-07-21T00:51:49;11.47;;;10.47;;
2049;SDS011;8478;49.208;8.806;2022-07-21T00:54:16;11.00;;;10.30;;
2049;SDS011;8478;49.208;8.806;2022-07-21T00:56:43;12.40;;;11.43;;
2049;SDS011;8478;49.208;8.806;2022-07-21T00:59:10;11.93;;;10.87;;
2049;SDS011;8478;49.208;8.806;2022-07-21T01:01:37;11.53;;;10.70;;
2049;SDS011;8478;49.208;8.806;2022-07-21T01:04:03;12.23;;;11.33;;
2049;SDS011;8478;49.208;8.806;2022-07-21T01:06:29;10.75;;;9.80;;
2049;SDS011;8478;49.208;8.806;2022-07-21T01:08:55;11.30;;;10.40;;
2049;SDS011;8478;49.208;8.806;2022-07-21T01:11:22;11.53;;;10.63;;
2049;SDS011;8478;49.208;8.806;2022-07-21T01:13:50;11.57;;;10.60;;
2049;SDS011;8478;49.208;8.806;2022-07-21T01:16:16;11.53;;;10.63;;
2049;SDS011;8478;49.208;8.806;2022-07-21T01:18:42;12.23;;;11.23;;
2049;SDS011;8478;49.208;8.806;2022-07-21T01:21:15;12.13;;;11.03;;
2049;SDS011;8478;49.208;8.806;2022-07-21T01:23:49;11.00;;;10.10;;
2049;SDS011;8478;49.208;8.806;2022-07-21T01:26:15;10.90;;;10.10;;
2049;SDS011;8478;49.208;8.806;2022-07-21T01:28:41;12.20;;;11.30;;
2049;SDS011;8478;49.208;8.806;2022-07-21T01:31:06;12.30;;;11.40;;
2049;SDS011;8478;49.208;8.806;2022-07-21T01:33:32;12.40;;;11.30;;
2049;SDS011;8478;49.208;8.806;2022-07-21T01:35:58;11.40;;;10.60;;
2049;SDS011;8478;49.208;8.806;2022-07-21T01:38:23;10.63;;;9.93;;
2049;SDS011;8478;49.208;8.806;2022-07-21T01:41:07;11.50;;;10.67;;
2049;SDS011;8478;49.208;8.806;2022-07-21T01:43:52;11.50;;;10.70;;
2049;SDS011;8478;49.208;8.806;2022-07-21T01:46:17;11.80;;;10.90;;
2049;SDS011;8478;49.208;8.806;2022-07-21T01:48:43;12.10;;;11.17;;
2049;SDS011;8478;49.208;8.806;2022-07-21T01:51:09;12.33;;;11.37;;
2049;SDS011;8478;49.208;8.806;2022-07-21T01:53:35;11.83;;;10.93;;
2049;SDS011;8478;49.208;8.806;2022-07-21T01:56:01;12.63;;;11.33;;
2049;SDS011;8478;49.208;8.806;2022-07-21T01:58:27;10.90;;;10.07;;
2049;SDS011;8478;49.208;8.806;2022-07-21T02:00:54;11.87;;;10.83;;
2049;SDS011;8478;49.208;8.806;2022-07-21T02:03:20;11.40;;;10.43;;
2049;SDS011;8478;49.208;8.806;2022-07-21T02:05:46;12.43;;;11.53;;
2049;SDS011;8478;49.208;8.806;2022-07-21T02:08:11;11.70;;;10.80;;
2049;SDS011;8478;49.208;8.806;2022-07-21T02:10:37;12.30;;;11.30;;
2049;SDS011;8478;49.208;8.806;2022-07-21T02:13:03;12.20;;;11.30;;
2049;SDS011;8478;49.208;8.806;2022-07-21T02:15:29;12.70;;;11.80;;
2049;SDS011;8478;49.208;8.806;2022-07-21T02:17:56;12.67;;;11.77;;
2049;SDS011;8478;49.208;8.806;2022-07-21T02:20:22;11.50;;;10.50;;
2049;SDS011;8478;49.208;8.806;2022-07-21T02:22:48;12.80;;;11.90;;
2049;SDS011;8478;49.208;8.806;2022-07-21T02:25:14;11.67;;;10.77;;
2049;SDS011;8478;49.208;8.806;2022-07-21T02:27:40;12.67;;;11.57;;
2049;SDS011;8478;49.208;8.806;2022-07-21T02:30:07;11.33;;;10.43;;
2049;SDS011;8478;49.208;8.806;2022-07-21T02:32:33;11.90;;;11.10;;
2049;SDS011;8478;49.208;8.806;2022-07-21T02:34:59;13.13;;;12.00;;
2049;SDS011;8478;49.208;8.806;2022-07-21T02:37:24;12.03;;;11.03;;
2049;SDS011;8478;49.208;8.806;2022-07-21T02:39:52;11.20;;;10.37;;
2049;SDS011;8478;49.208;8.806;2022-07-21T02:42:17;11.33;;;10.40;;
2049;SDS011;8478;49.208;8.806;2022-07-21T02:44:43;12.20;;;11.27;;
2049;SDS011;8478;49.208;8.806;2022-07-21T02:47:08;12.83;;;11.90;;
2049;SDS011;8478;49.208;8.806;2022-07-21T02:49:34;11.40;;;10.60;;
2049;SDS011;8478;49.208;8.806;2022-07-21T02:52:00;12.40;;;11.50;;
2049;SDS011;8478;49.208;8.806;2022-07-21T02:54:25;13.80;;;12.70;;
2049;SDS011;8478;49.208;8.806;2022-07-21T02:56:51;12.37;;;11.40;;
2049;SDS011;8478;49.208;8.806;2022-07-21T02:59:17;13.57;;;12.67;;
2049;SDS011;8478;49.208;8.806;2022-07-21T03:01:42;13.03;;;12.03;;
2049;SDS011;8478;49.208;8.806;2022-07-21T03:04:08;12.53;;;11.57;;
2049;SDS011;8478;49.208;8.806;2022-07-21T03:06:34;11.90;;;11.00;;
2049;SDS011;8478;49.208;8.806;2022-07-21T03:09:00;12.57;;;11.50;;
2049;SDS011;8478;49.208;8.806;2022-07-21T03:11:25;11.83;;;10.97;;
2049;SDS011;8478;49.208;8.806;2022-07-21T03:13:51;12.70;;;11.80;;
2049;SDS011;8478;49.208;8.806;2022-07-21T03:16:17;12.30;;;11.40;;
2049;SDS011;8478;49.208;8.806;2022-07-21T03:18:42;11.67;;;10.87;;
2049;SDS011;8478;49.208;8.806;2022-07-21T03:21:08;11.90;;;11.03;;
2049;SDS011;8478;49.208;8.806;2022-07-21T03:23:34;13.10;;;12.07;;
2049;SDS011;8478;49.208;8.806;2022-07-21T03:25:59;11.93;;;10.93;;
2049;SDS011;8478;49.208;8.806;2022-07-21T03:28:25;11.70;;;10.60;;
2049;SDS011;8478;49.208;8.806;2022-07-21T03:30:51;11.83;;;10.93;;
2049;SDS011;8478;49.208;8.806;2022-07-21T03:33:16;11.90;;;11.10;;
2049;SDS011;8478;49.208;8.806;2022-07-21T03:35:42;11.83;;;11.00;;
2049;SDS011;8478;49.208;8.806;2022-07-21T03:38:08;11.73;;;10.73;;
2049;SDS011;8478;49.208;8.806;2022-07-21T03:40:35;13.40;;;12.30;;
2049;SDS011;8478;49.208;8.806;2022-07-21T03:43:03;12.97;;;12.07;;
2049;SDS011;8478;49.208;8.806;2022-07-21T03:45:30;13.27;;;12.27;;
2049;SDS011;8478;49.208;8.806;2022-07-21T03:47:58;13.37;;;12.37;;
2049;SDS011;8478;49.208;8.806;2022-07-21T03:50:25;13.30;;;12.20;;
2049;SDS011;8478;49.208;8.806;2022-07-21T03:52:51;13.10;;;12.20;;
2049;SDS011;8478;49.208;8.806;2022-07-21T03:55:17;13.00;;;12.00;;
2049;SDS011;8478;49.208;8.806;2022-07-21T03:57:50;13.13;;;12.17;;
2049;SDS011;8478;49.208;8.806;2022-07-21T04:02:48;12.13;;;11.23;;
2049;SDS011;8478;49.208;8.806;2022-07-21T04:05:15;13.97;;;12.90;;
2049;SDS011;8478;49.208;8.806;2022-07-21T04:07:42;13.73;;;12.63;;
2049;SDS011;8478;49.208;8.806;2022-07-21T04:10:10;14.03;;;12.93;;
2049;SDS011;8478;49.208;8.806;2022-07-21T04:12:37;13.60;;;12.50;;
2049;SDS011;8478;49.208;8.806;2022-07-21T04:15:03;13.57;;;12.30;;
2049;SDS011;8478;49.208;8.806;2022-07-21T04:17:30;13.13;;;12.20;;
2049;SDS011;8478;49.208;8.806;2022-07-21T04:19:56;13.03;;;11.93;;
2049;SDS011;8478;49.208;8.806;2022-07-21T04:22:21;14.03;;;12.93;;
2049;SDS011;8478;49.208;8.806;2022-07-21T04:24:47;13.27;;;12.30;;
2049;SDS011;8478;49.208;8.806;2022-07-21T04:27:13;13.17;;;12.17;;
2049;SDS011;8478;49.208;8.806;2022-07-21T04:29:38;14.20;;;12.90;;
2049;SDS011;8478;49.208;8.806;2022-07-21T04:32:04;15.07;;;13.97;;
2049;SDS011;8478;49.208;8.806;2022-07-21T04:34:30;13.03;;;12.00;;
2049;SDS011;8478;49.208;8.806;2022-07-21T04:36:56;13.00;;;11.87;;
2049;SDS011;8478;49.208;8.806;2022-07-21T04:39:21;14.47;;;13.47;;
2049;SDS011;8478;49.208;8.806;2022-07-21T04:41:47;14.80;;;13.70;;
2049;SDS011;8478;49.208;8.806;2022-07-21T04:44:13;13.40;;;12.40;;
2049;SDS011;8478;49.208;8.806;2022-07-21T04:46:38;14.37;;;13.37;;
2049;SDS011;8478;49.208;8.806;2022-07-21T04:49:04;14.50;;;13.27;;
2049;SDS011;8478;49.208;8.806;2022-07-21T04:51:30;13.97;;;12.87;;
2049;SDS011;8478;49.208;8.806;2022-07-21T04:53:56;12.83;;;11.93;;
2049;SDS011;8478;49.208;8.806;2022-07-21T04:56:21;14.40;;;13.30;;
2049;SDS011;8478;49.208;8.806;2022-07-21T04:58:47;13.80;;;12.80;;
2049;SDS011;8478;49.208;8.806;2022-07-21T05:01:13;15.27;;;14.07;;
2049;SDS011;8478;49.208;8.806;2022-07-21T05:03:39;14.20;;;13.00;;
2049;SDS011;8478;49.208;8.806;2022-07-21T05:06:05;13.77;;;12.77;;
2049;SDS011;8478;49.208;8.806;2022-07-21T05:08:30;14.67;;;13.40;;
2049;SDS011;8478;49.208;8.806;2022-07-21T05:10:56;15.10;;;13.80;;
2049;SDS011;8478;49.208;8.806;2022-07-21T05:13:22;15.37;;;14.27;;
2049;SDS011;8478;49.208;8.806;2022-07-21T05:15:47;14.93;;;13.77;;
2049;SDS011;8478;49.208;8.806;2022-07-21T05:18:13;14.30;;;13.20;;
2049;SDS011;8478;49.208;8.806;2022-07-21T05:20:38;14.87;;;13.73;;
2049;SDS011;8478;49.208;8.806;2022-07-21T05:23:04;14.53;;;13.43;;
2049;SDS011;8478;49.208;8.806;2022-07-21T05:25:30;14.83;;;13.63;;
2049;SDS011;8478;49.208;8.806;2022-07-21T05:27:57;14.33;;;13.33;;
2049;SDS011;8478;49.208;8.806;2022-07-21T05:30:23;15.97;;;14.70;;
2049;SDS011;8478;49.208;8.806;2022-07-21T05:32:49;14.37;;;13.30;;
2049;SDS011;8478;49.208;8.806;2022-07-21T05:35:15;14.67;;;13.63;;
2049;SDS011;8478;49.208;8.806;2022-07-21T05:37:41;13.93;;;12.70;;
2049;SDS011;8478;49.208;8.806;2022-07-21T05:40:07;14.70;;;13.50;;
2049;SDS011;8478;49.208;8.806;2022-07-21T05:42:34;13.73;;;12.70;;
2049;SDS011;8478;49.208;8.806;2022-07-21T05:45:01;14.67;;;13.40;;
2049;SDS011;8478;49.208;8.806;2022-07-21T05:47:28;16.33;;;15.23;;
2049;SDS011;8478;49.208;8.806;2022-07-21T05:49:54;13.17;;;12.27;;
2049;SDS011;8478;49.208;8.806;2022-07-21T05:52:20;13.40;;;12.37;;
2049;SDS011;8478;49.208;8.806;2022-07-21T05:54:46;14.37;;;13.00;;
2049;SDS011;8478;49.208;8.806;2022-07-21T05:57:11;14.60;;;13.50;;
2049;SDS011;8478;49.208;8.806;2022-07-21T05:59:37;14.47;;;13.37;;
2049;SDS011;8478;49.208;8.806;2022-07-21T06:02:03;14.20;;;13.10;;
2049;SDS011;8478;49.208;8.806;2022-07-21T06:04:28;13.77;;;12.63;;
2049;SDS011;8478;49.208;8.806;2022-07-21T06:06:54;13.83;;;12.80;;
2049;SDS011;8478;49.208;8.806;2022-07-21T06:09:20;14.43;;;13.33;;
2049;SDS011;8478;49.208;8.806;2022-07-21T06:11:46;14.70;;;13.60;;
2049;SDS011;8478;49.208;8.806;2022-07-21T06:14:11;13.70;;;12.70;;
2049;SDS011;8478;49.208;8.806;2022-07-21T06:16:37;13.87;;;12.77;;
2049;SDS011;8478;49.208;8.806;2022-07-21T06:19:04;14.50;;;13.60;;
2049;SDS011;8478;49.208;8.806;2022-07-21T06:21:31;13.97;;;12.77;;
2049;SDS011;8478;49.208;8.806;2022-07-21T06:23:57;16.10;;;14.90;;
2049;SDS011;8478;49.208;8.806;2022-07-21T06:26:23;14.10;;;12.97;;
2049;SDS011;8478;49.208;8.806;2022-07-21T06:28:49;14.10;;;13.03;;
2049;SDS011;8478;49.208;8.806;2022-07-21T06:31:14;13.97;;;12.80;;
2049;SDS011;8478;49.208;8.806;2022-07-21T06:33:40;13.97;;;12.90;;
2049;SDS011;8478;49.208;8.806;2022-07-21T06:36:06;14.40;;;13.30;;
2049;SDS011;8478;49.208;8.806;2022-07-21T06:38:32;13.93;;;12.93;;
2049;SDS011;8478;49.208;8.806;2022-07-21T06:40:58;14.60;;;13.40;;
2049;SDS011;8478;49.208;8.806;2022-07-21T06:43:24;14.10;;;13.10;;
2049;SDS011;8478;49.208;8.806;2022-07-21T06:45:49;13.10;;;12.10;;
2049;SDS011;8478;49.208;8.806;2022-07-21T06:48:18;13.07;;;12.17;;
2049;SDS011;8478;49.208;8.806;2022-07-21T06:50:44;13.00;;;12.00;;
2049;SDS011;8478;49.208;8.806;2022-07-21T06:53:10;13.63;;;12.63;;
2049;SDS011;8478;49.208;8.806;2022-07-21T06:55:35;14.47;;;13.37;;
2049;SDS011;8478;49.208;8.806;2022-07-21T06:58:08;11.67;;;10.87;;
2049;SDS011;8478;49.208;8.806;2022-07-21T07:00:35;13.80;;;12.77;;
2049;SDS011;8478;49.208;8.806;2022-07-21T07:03:01;11.50;;;10.70;;
2049;SDS011;8478;49.208;8.806;2022-07-21T07:05:27;13.40;;;12.20;;
2049;SDS011;8478;49.208;8.806;2022-07-21T07:07:55;12.83;;;11.83;;
2049;SDS011;8478;49.208;8.806;2022-07-21T07:10:20;13.23;;;12.27;;
2049;SDS011;8478;49.208;8.806;2022-07-21T07:12:46;12.87;;;11.87;;
2049;SDS011;8478;49.208;8.806;2022-07-21T07:15:12;12.60;;;11.70;;
2049;SDS011;8478;49.208;8.806;2022-07-21T07:17:37;12.30;;;11.40;;
2049;SDS011;8478;49.208;8.806;2022-07-21T07:20:04;12.03;;;11.23;;
2049;SDS011;8478;49.208;8.806;2022-07-21T07:22:31;12.87;;;12.00;;
2049;SDS011;8478;49.208;8.806;2022-07-21T07:24:57;12.33;;;11.43;;
2049;SDS011;8478;49.208;8.806;2022-07-21T07:27:23;12.40;;;11.50;;
2049;SDS011;8478;49.208;8.806;2022-07-21T07:29:49;13.87;;;12.70;;
2049;SDS011;8478;49.208;8.806;2022-07-21T07:32:15;11.37;;;10.47;;
2049;SDS011;8478;49.208;8.806;2022-07-21T07:34:40;13.23;;;12.23;;
2049;SDS011;8478;49.208;8.806;2022-07-21T07:37:06;11.33;;;10.40;;
2049;SDS011;8478;49.208;8.806;2022-07-21T07:39:32;11.40;;;10.60;;
2049;SDS011;8478;49.208;8.806;2022-07-21T07:41:58;11.00;;;10.23;;
2049;SDS011;8478;49.208;8.806;2022-07-21T07:44:24;12.00;;;11.10;;
2049;SDS011;8478;49.208;8.806;2022-07-21T07:46:49;12.00;;;11.20;;
2049;SDS011;8478;49.208;8.806;2022-07-21T07:49:15;10.87;;;10.07;;
2049;SDS011;8478;49.208;8.806;2022-07-21T07:51:41;10.50;;;9.80;;
2049;SDS011;8478;49.208;8.806;2022-07-21T07:54:07;12.30;;;11.33;;
2049;SDS011;8478;49.208;8.806;2022-07-21T07:56:33;10.83;;;10.03;;
2049;SDS011;8478;49.208;8.806;2022-07-21T07:58:59;11.20;;;10.37;;
2049;SDS011;8478;49.208;8.806;2022-07-21T08:01:25;11.60;;;10.80;;
2049;SDS011;8478;49.208;8.806;2022-07-21T08:03:50;11.73;;;10.83;;
2049;SDS011;8478;49.208;8.806;2022-07-21T08:06:16;10.90;;;10.10;;
2049;SDS011;8478;49.208;8.806;2022-07-21T08:08:42;10.97;;;10.07;;
2049;SDS011;8478;49.208;8.806;2022-07-21T08:11:07;10.87;;;9.90;;
2049;SDS011;8478;49.208;8.806;2022-07-21T08:13:34;11.80;;;10.90;;
2049;SDS011;8478;49.208;8.806;2022-07-21T08:16:00;11.60;;;10.77;;
2049;SDS011;8478;49.208;8.806;2022-07-21T08:18:26;10.43;;;9.70;;
2049;SDS011;8478;49.208;8.806;2022-07-21T08:20:52;11.53;;;10.73;;
2049;SDS011;8478;49.208;8.806;2022-07-21T08:23:18;10.53;;;9.80;;
2049;SDS011;8478;49.208;8.806;2022-07-21T08:25:44;12.10;;;11.10;;
2049;SDS011;8478;49.208;8.806;2022-07-21T08:28:09;10.03;;;9.33;;
2049;SDS011;8478;49.208;8.806;2022-07-21T08:30:35;12.50;;;11.60;;
2049;SDS011;8478;49.208;8.806;2022-07-21T08:33:02;11.33;;;10.40;;
2049;SDS011;8478;49.208;8.806;2022-07-21T08:35:28;11.00;;;10.20;;
2049;SDS011;8478;49.208;8.806;2022-07-21T08:37:58;11.67;;;10.87;;
2049;SDS011;8478;49.208;8.806;2022-07-21T08:40:34;11.57;;;10.77;;
2049;SDS011;8478;49.208;8.806;2022-07-21T08:43:02;11.17;;;10.30;;
2049;SDS011;8478;49.208;8.806;2022-07-21T08:45:28;10.97;;;10.20;;
2049;SDS011;8478;49.208;8.806;2022-07-21T08:47:55;11.17;;;10.27;;
2049;SDS011;8478;49.208;8.806;2022-07-21T08:50:22;11.20;;;10.40;;
2049;SDS011;8478;49.208;8.806;2022-07-21T08:52:54;11.00;;;10.20;;
2049;SDS011;8478;49.208;8.806;2022-07-21T08:55:20;10.53;;;9.83;;
2049;SDS011;8478;49.208;8.806;2022-07-21T08:57:46;11.23;;;10.43;;
2049;SDS011;8478;49.208;8.806;2022-07-21T09:00:12;12.07;;;11.07;;
2049;SDS011;8478;49.208;8.806;2022-07-21T09:02:38;12.27;;;11.10;;
2049;SDS011;8478;49.208;8.806;2022-07-21T09:05:08;10.20;;;9.47;;
2049;SDS011;8478;49.208;8.806;2022-07-21T09:07:50;11.30;;;10.50;;
2049;SDS011;8478;49.208;8.806;2022-07-21T09:10:23;11.10;;;10.40;;
2049;SDS011;8478;49.208;8.806;2022-07-21T09:12:51;11.93;;;10.97;;
2049;SDS011;8478;49.208;8.806;2022-07-21T09:15:18;10.53;;;9.83;;
2049;SDS011;8478;49.208;8.806;2022-07-21T09:17:46;10.70;;;10.00;;
2049;SDS011;8478;49.208;8.806;2022-07-21T09:20:27;11.00;;;10.27;;
2049;SDS011;8478;49.208;8.806;2022-07-21T09:25:49;11.10;;;10.30;;
2049;SDS011;8478;49.208;8.806;2022-07-21T09:28:20;10.40;;;9.60;;
2049;SDS011;8478;49.208;8.806;2022-07-21T09:33:24;9.93;;;9.23;;
2049;SDS011;8478;49.208;8.806;2022-07-21T09:36:08;9.97;;;9.27;;
2049;SDS011;8478;49.208;8.806;2022-07-21T09:38:51;11.27;;;10.47;;
2049;SDS011;8478;49.208;8.806;2022-07-21T09:41:23;11.00;;;10.07;;
2049;SDS011;8478;49.208;8.806;2022-07-21T09:43:54;10.63;;;9.93;;
2049;SDS011;8478;49.208;8.806;2022-07-21T09:46:22;10.50;;;9.70;;
2049;SDS011;8478;49.208;8.806;2022-07-21T09:48:50;12.13;;;10.97;;
2049;SDS011;8478;49.208;8.806;2022-07-21T09:51:21;9.87;;;9.17;;
2049;SDS011;8478;49.208;8.806;2022-07-21T09:54:01;10.13;;;9.50;;
2049;SDS011;8478;49.208;8.806;2022-07-21T09:56:33;11.43;;;10.67;;
2049;SDS011;8478;49.208;8.806;2022-07-21T09:59:05;11.27;;;10.47;;
2049;SDS011;8478;49.208;8.806;2022-07-21T10:01:33;10.80;;;9.90;;
2049;SDS011;8478;49.208;8.806;2022-07-21T10:04:01;10.03;;;9.37;;
2049;SDS011;8478;49.208;8.806;2022-07-21T10:06:28;11.23;;;10.33;;
2049;SDS011;8478;49.208;8.806;2022-07-21T10:08:56;10.80;;;9.80;;
2049;SDS011;8478;49.208;8.806;2022-07-21T10:11:23;9.67;;;8.97;;
2049;SDS011;8478;49.208;8.806;2022-07-21T10:13:49;8.73;;;8.03;;
2049;SDS011;8478;49.208;8.806;2022-07-21T10:16:16;9.27;;;8.57;;
2049;SDS011;8478;49.208;8.806;2022-07-21T10:21:36;9.57;;;8.67;;
2049;SDS011;8478;49.208;8.806;2022-07-21T10:24:12;9.33;;;8.73;;
2049;SDS011;8478;49.208;8.806;2022-07-21T10:26:39;10.27;;;9.57;;
2049;SDS011;8478;49.208;8.806;2022-07-21T10:32:23;10.20;;;9.40;;
2049;SDS011;8478;49.208;8.806;2022-07-21T10:34:52;9.40;;;8.80;;
2049;SDS011;8478;49.208;8.806;2022-07-21T10:42:44;9.40;;;8.60;;
2049;SDS011;8478;49.208;8.806;2022-07-21T10:45:43;10.10;;;9.40;;
2049;SDS011;8478;49.208;8.806;2022-07-21T10:51:03;9.33;;;8.73;;
2049;SDS011;8478;49.208;8.806;2022-07-21T10:53:32;9.80;;;9.10;;
2049;SDS011;8478;49.208;8.806;2022-07-21T10:55:57;8.70;;;8.10;;
2049;SDS011;8478;49.208;8.806;2022-07-21T10:58:27;9.67;;;8.87;;
2049;SDS011;8478;49.208;8.806;2022-07-21T11:00:55;9.33;;;8.53;;
2049;SDS011;8478;49.208;8.806;2022-07-21T11:11:13;8.93;;;8.23;;
2049;SDS011;8478;49.208;8.806;2022-07-21T11:22:19;9.77;;;9.07;;
2049;SDS011;8478;49.208;8.806;2022-07-21T11:24:50;9.50;;;8.77;;
2049;SDS011;8478;49.208;8.806;2022-07-21T11:27:26;9.30;;;8.70;;
2049;SDS011;8478;49.208;8.806;2022-07-21T11:29:56;8.60;;;8.00;;
2049;SDS011;8478;49.208;8.806;2022-07-21T11:32:23;8.83;;;8.10;;
2049;SDS011;8478;49.208;8.806;2022-07-21T11:34:50;9.00;;;8.40;;
2049;SDS011;8478;49.208;8.806;2022-07-21T11:39:54;7.87;;;7.23;;
2049;SDS011;8478;49.208;8.806;2022-07-21T11:42:20;8.07;;;7.53;;
2049;SDS011;8478;49.208;8.806;2022-07-21T11:44:45;9.03;;;8.30;;
2049;SDS011;8478;49.208;8.806;2022-07-21T11:47:12;9.23;;;8.60;;
2049;SDS011;8478;49.208;8.806;2022-07-21T11:49:40;9.27;;;8.57;;
2049;SDS011;8478;49.208;8.806;2022-07-21T11:52:10;8.60;;;8.00;;
2049;SDS011;8478;49.208;8.806;2022-07-21T11:54:45;8.13;;;7.53;;
2049;SDS011;8478;49.208;8.806;2022-07-21T11:57:13;8.13;;;7.53;;
2049;SDS011;8478;49.208;8.806;2022-07-21T11:59:42;8.20;;;7.53;;
2049;SDS011;8478;49.208;8.806;2022-07-21T12:02:27;7.70;;;7.20;;
2049;SDS011;8478;49.208;8.806;2022-07-21T12:05:01;7.97;;;7.37;;
2049;SDS011;8478;49.208;8.806;2022-07-21T12:07:39;7.97;;;7.27;;
2049;SDS011;8478;49.208;8.806;2022-07-21T12:10:11;7.80;;;7.30;;
2049;SDS011;8478;49.208;8.806;2022-07-21T12:12:49;7.13;;;6.63;;
2049;SDS011;8478;49.208;8.806;2022-07-21T12:15:22;7.90;;;7.40;;
2049;SDS011;8478;49.208;8.806;2022-07-21T12:18:01;8.03;;;7.43;;
2049;SDS011;8478;49.208;8.806;2022-07-21T12:20:38;7.30;;;6.80;;
2049;SDS011;8478;49.208;8.806;2022-07-21T12:25:47;8.60;;;7.80;;
2049;SDS011;8478;49.208;8.806;2022-07-21T12:28:13;7.50;;;6.90;;
2049;SDS011;8478;49.208;8.806;2022-07-21T12:30:50;6.73;;;6.30;;
2049;SDS011;8478;49.208;8.806;2022-07-21T12:33:17;7.17;;;6.60;;
2049;SDS011;8478;49.208;8.806;2022-07-21T12:35:56;7.20;;;6.70;;
2049;SDS011;8478;49.208;8.806;2022-07-21T12:38:36;7.07;;;6.47;;
2049;SDS011;8478;49.208;8.806;2022-07-21T12:41:07;7.70;;;7.10;;
2049;SDS011;8478;49.208;8.806;2022-07-21T12:43:34;6.80;;;6.20;;
2049;SDS011;8478;49.208;8.806;2022-07-21T12:48:31;7.50;;;6.83;;
2049;SDS011;8478;49.208;8.806;2022-07-21T12:53:26;7.07;;;6.57;;
2049;SDS011;8478;49.208;8.806;2022-07-21T12:55:52;5.90;;;5.50;;
2049;SDS011;8478;49.208;8.806;2022-07-21T12:58:20;6.60;;;6.10;;
2049;SDS011;8478;49.208;8.806;2022-07-21T13:00:46;6.73;;;6.23;;
2049;SDS011;8478;49.208;8.806;2022-07-21T13:03:11;6.70;;;6.17;;
2049;SDS011;8478;49.208;8.806;2022-07-21T13:05:37;6.53;;;6.13;;
2049;SDS011;8478;49.208;8.806;2022-07-21T13:08:03;6.20;;;5.63;;
2049;SDS011;8478;49.208;8.806;2022-07-21T13:10:29;6.90;;;6.40;;
2049;SDS011;8478;49.208;8.806;2022-07-21T13:12:55;6.23;;;5.83;;
2049;SDS011;8478;49.208;8.806;2022-07-21T13:15:21;5.93;;;5.53;;
2049;SDS011;8478;49.208;8.806;2022-07-21T13:17:47;7.23;;;6.73;;
2049;SDS011;8478;49.208;8.806;2022-07-21T13:20:13;6.67;;;6.17;;
2049;SDS011;8478;49.208;8.806;2022-07-21T13:22:39;9.00;;;6.03;;
2049;SDS011;8478;49.208;8.806;2022-07-21T13:25:07;5.80;;;5.40;;
2049;SDS011;8478;49.208;8.806;2022-07-21T13:27:35;7.23;;;6.53;;
2049;SDS011;8478;49.208;8.806;2022-07-21T13:30:02;6.70;;;6.30;;
2049;SDS011;8478;49.208;8.806;2022-07-21T13:32:29;6.20;;;5.80;;
2049;SDS011;8478;49.208;8.806;2022-07-21T13:34:54;6.47;;;6.00;;
2049;SDS011;8478;49.208;8.806;2022-07-21T13:37:20;5.83;;;5.43;;
2049;SDS011;8478;49.208;8.806;2022-07-21T13:39:46;6.13;;;5.73;;
2049;SDS011;8478;49.208;8.806;2022-07-21T13:42:11;7.10;;;6.60;;
2049;SDS011;8478;49.208;8.806;2022-07-21T13:44:37;7.00;;;6.50;;
2049;SDS011;8478;49.208;8.806;2022-07-21T13:47:03;6.40;;;5.90;;
2049;SDS011;8478;49.208;8.806;2022-07-21T13:49:29;6.27;;;5.77;;
2049;SDS011;8478;49.208;8.806;2022-07-21T13:51:54;6.17;;;5.70;;
2049;SDS011;8478;49.208;8.806;2022-07-21T13:54:20;5.90;;;5.50;;
2049;SDS011;8478;49.208;8.806;2022-07-21T13:56:46;6.57;;;6.07;;
2049;SDS011;8478;49.208;8.806;2022-07-21T13:59:12;5.87;;;5.43;;
2049;SDS011;8478;49.208;8.806;2022-07-21T14:01:37;7.07;;;6.47;;
2049;SDS011;8478;49.208;8.806;2022-07-21T14:04:03;6.37;;;5.87;;
2049;SDS011;8478;49.208;8.806;2022-07-21T14:06:29;6.63;;;6.13;;
2049;SDS011;8478;49.208;8.806;2022-07-21T14:08:55;7.23;;;6.63;;
2049;SDS011;8478;49.208;8.806;2022-07-21T14:11:21;6.20;;;5.70;;
2049;SDS011;8478;49.208;8.806;2022-07-21T14:13:49;6.63;;;6.13;;
2049;SDS011;8478;49.208;8.806;2022-07-21T14:16:15;7.10;;;6.60;;
2049;SDS011;8478;49.208;8.806;2022-07-21T14:18:40;6.73;;;6.23;;
2049;SDS011;8478;49.208;8.806;2022-07-21T14:21:07;7.40;;;6.90;;
2049;SDS011;8478;49.208;8.806;2022-07-21T14:23:33;6.93;;;6.43;;
2049;SDS011;8478;49.208;8.806;2022-07-21T14:25:58;7.83;;;7.23;;
2049;SDS011;8478;49.208;8.806;2022-07-21T14:28:25;7.90;;;7.30;;
2049;SDS011;8478;49.208;8.806;2022-07-21T14:30:51;6.97;;;6.47;;
2049;SDS011;8478;49.208;8.806;2022-07-21T14:33:17;7.00;;;6.50;;
2049;SDS011;8478;49.208;8.806;2022-07-21T14:35:43;6.37;;;5.97;;
2049;SDS011;8478;49.208;8.806;2022-07-21T14:38:09;6.83;;;6.23;;
2049;SDS011;8478;49.208;8.806;2022-07-21T14:40:35;7.03;;;6.47;;
2049;SDS011;8478;49.208;8.806;2022-07-21T14:43:02;7.50;;;7.00;;
2049;SDS011;8478;49.208;8.806;2022-07-21T14:45:28;7.57;;;7.00;;
2049;SDS011;8478;49.208;8.806;2022-07-21T14:47:54;6.47;;;5.93;;
2049;SDS011;8478;49.208;8.806;2022-07-21T14:50:22;6.20;;;5.70;;
2049;SDS011;8478;49.208;8.806;2022-07-21T14:52:49;7.00;;;6.50;;
2049;SDS011;8478;49.208;8.806;2022-07-21T14:55:15;7.40;;;6.80;;
2049;SDS011;8478;49.208;8.806;2022-07-21T14:57:41;6.80;;;6.20;;
2049;SDS011;8478;49.208;8.806;2022-07-21T15:00:07;7.47;;;6.83;;
2049;SDS011;8478;49.208;8.806;2022-07-21T15:02:34;6.60;;;6.10;;
2049;SDS011;8478;49.208;8.806;2022-07-21T15:05:01;6.93;;;6.43;;
2049;SDS011;8478;49.208;8.806;2022-07-21T15:07:28;7.20;;;6.70;;
2049;SDS011;8478;49.208;8.806;2022-07-21T15:09:53;6.50;;;6.03;;
2049;SDS011;8478;49.208;8.806;2022-07-21T15:12:20;7.50;;;6.90;;
2049;SDS011;8478;49.208;8.806;2022-07-21T15:14:46;7.43;;;6.93;;
2049;SDS011;8478;49.208;8.806;2022-07-21T15:17:12;7.57;;;6.97;;
2049;SDS011;8478;49.208;8.806;2022-07-21T15:19:38;7.30;;;6.80;;
2049;SDS011;8478;49.208;8.806;2022-07-21T15:22:04;6.00;;;5.40;;
2049;SDS011;8478;49.208;8.806;2022-07-21T15:24:29;6.80;;;6.20;;
2049;SDS011;8478;49.208;8.806;2022-07-21T15:26:55;7.10;;;6.53;;
2049;SDS011;8478;49.208;8.806;2022-07-21T15:29:21;6.80;;;6.27;;
2049;SDS011;8478;49.208;8.806;2022-07-21T15:31:47;6.00;;;5.60;;
2049;SDS011;8478;49.208;8.806;2022-07-21T15:34:12;7.53;;;6.87;;
2049;SDS011;8478;49.208;8.806;2022-07-21T15:36:38;6.77;;;6.27;;
2049;SDS011;8478;49.208;8.806;2022-07-21T15:39:05;6.77;;;6.17;;
2049;SDS011;8478;49.208;8.806;2022-07-21T15:41:34;6.67;;;6.17;;
2049;SDS011;8478;49.208;8.806;2022-07-21T15:46:31;5.77;;;5.37;;
2049;SDS011;8478;49.208;8.806;2022-07-21T15:48:57;6.60;;;6.17;;